Latest Weather Observations for Gold Coast Seaway

IDQ60901

Issued at 4:41 am EST Tuesday 21 November 2017 (issued every 10 minutes, with the page automatically refreshed every 10 minutes)

About weather observations | Map of Brisbane area stations | Latest observations for Brisbane area | Other Formats
Station Details ID: 040764 Name: GOLD COAST SEAWAY Lat: -27.94 Lon: 153.43 Height: 2.98 m
Data from the previous 72 hours. | See also: Recent months at Gold Coast Seaway
Date/Time
EST
Temp
°C
App
Temp
°C
Dew
Point
°C
Rel
Hum
%
Delta-T
°C
Wind Press
QNH
hPa
Press
MSL
hPa
Rain since
9am
mm
Dir  Spd
km/h
Gust
km/h
Spd
kts
Gust
kts
21/04:30am 17.9 14.7 15.2 84 1.6 S 26 35 14 19 1018.0 1018.0 3.6
21/04:00am 17.8 14.6 15.4 86 1.4 S 26 35 14 19 1017.7 1017.7 3.6
21/03:30am 17.7 16.1 16.0 90 1.0 S 19 26 10 14 1017.8 1017.8 3.6
21/03:00am 18.0 17.1 16.9 93 0.7 S 17 22 9 12 1017.9 1017.9 3.6
21/02:30am 17.8 16.6 17.0 95 0.5 S 19 28 10 15 1018.0 1018.0 3.6
21/02:00am 17.9 16.8 17.7 99 0.1 S 20 33 11 18 1017.9 1017.9 3.6
21/01:30am 18.4 17.1 18.2 99 0.1 SSE 22 32 12 17 1018.3 1018.3 3.6
21/01:00am 19.8 16.1 18.3 91 0.9 SSE 35 44 19 24 1018.5 1018.5 2.8
21/12:30am 19.1 13.1 16.5 85 1.6 SSE 43 56 23 30 1018.7 1018.7 2.8
21/12:00am 18.9 13.2 17.7 93 0.7 SE 44 56 24 30 1019.1 1019.1 2.8
 
Date/Time
EST
Temp
°C
App
Temp
°C
Dew
Point
°C
Rel
Hum
%
Delta-T
°C
Wind Press
QNH
hPa
Press
MSL
hPa
Rain since
9am
mm
Dir  Spd
km/h
Gust
km/h
Spd
kts
Gust
kts
20/11:30pm 19.1 14.1 18.8 98 0.2 SE 43 56 23 30 1019.5 1019.5 2.8
20/11:18pm 18.8 15.8 18.6 99 0.1 SSE 32 48 17 26 1019.7 1019.7 2.8
20/11:00pm 18.3 16.9 18.0 98 0.2 S 22 43 12 23 1019.8 1019.8 2.8
20/10:30pm 18.9 16.3 16.9 88 1.2 S 26 43 14 23 1020.0 1020.0 2.6
20/10:00pm 21.0 17.1 17.0 78 2.4 SE 33 41 18 22 1019.8 1019.8 0.6
20/09:30pm 20.7 16.7 17.5 82 2.0 SE 35 41 19 22 1019.9 1019.9 0.6
20/09:00pm 20.0 17.7 18.5 91 0.9 SSE 28 33 15 18 1019.9 1019.9 0.6
20/08:30pm 19.2 17.7 16.8 86 1.4 S 20 30 11 16 1019.8 1019.8 0.6
20/08:00pm 19.7 16.5 16.3 81 2.0 SSE 28 37 15 20 1019.7 1019.7 0.6
20/07:30pm 19.8 17.3 16.1 79 2.2 S 24 33 13 18 1019.7 1019.7 0.4
20/07:00pm 19.8 17.7 16.3 80 2.1 S 22 28 12 15 1019.5 1019.5 0.4
20/06:30pm 20.2 16.8 15.8 76 2.6 SSE 28 35 15 19 1019.6 1019.6 0.4
20/06:00pm 20.5 16.3 16.1 76 2.6 SSE 33 41 18 22 1019.6 1019.6 0.4
20/05:30pm 20.5 16.7 16.7 79 2.3 SSE 32 37 17 20 1019.4 1019.4 0.4
20/05:00pm 21.0 14.6 17.8 82 2.0 SE 48 59 26 32 1019.0 1019.0 0.4
20/04:42pm 22.5 17.2 18.1 76 2.7 SSE 43 61 23 33 1018.8 1018.8 0.4
20/04:30pm 22.5 17.9 17.2 72 3.3 SSE 37 46 20 25 1018.6 1018.6 0.4
20/04:00pm 22.2 18.6 18.6 80 2.3 SE 35 48 19 26 1018.4 1018.4 0.4
20/03:40pm 20.8 15.1 16.2 75 2.8 SE 41 59 22 32 1018.5 1018.5 0.4
20/03:30pm 22.0 15.5 15.6 67 3.8 SE 44 57 24 31 1018.6 1018.6 0.2
20/03:00pm 24.6 19.4 16.6 61 4.9 SSE 39 48 21 26 1018.4 1018.4 0.2
20/02:30pm 24.7 19.8 17.2 63 4.7 SSE 39 46 21 25 1018.7 1018.7 0.2
20/02:00pm 24.0 18.7 16.3 62 4.7 SSE 39 48 21 26 1019.0 1019.0 0.2
20/01:30pm 25.6 21.1 16.5 57 5.6 SE 35 41 19 22 1019.1 1019.1 0.2
20/01:00pm 25.6 20.8 16.5 57 5.6 SE 37 43 20 23 1019.2 1019.2 0.2
20/12:30pm 25.6 21.6 16.7 58 5.5 SSE 33 39 18 21 1019.4 1019.4 0.2
20/12:00pm 25.1 20.9 16.3 58 5.4 SSE 33 41 18 22 1019.7 1019.7 0.2
20/11:30am 25.1 20.9 16.3 58 5.4 SSE 33 39 18 21 1020.1 1020.1 0.2
20/11:00am 25.2 20.9 16.9 60 5.1 SE 35 41 19 22 1020.3 1020.3 0.2
20/10:30am 24.6 19.8 16.6 61 4.9 SSE 37 44 20 24 1020.2 1020.2 0.2
20/10:00am 23.8 19.1 15.8 61 4.8 SSE 35 44 19 24 1020.2 1020.2 0.2
20/09:30am 23.0 22.1 18.3 75 2.9 SSE 20 30 11 16 1020.2 1020.2 0.2
20/09:00am 22.6 20.7 15.7 65 4.1 SSE 20 26 11 14 1020.1 1020.1 1.2
20/08:30am 22.0 17.5 15.4 66 3.9 SSE 33 41 18 22 1020.1 1020.1 1.2
20/08:00am 21.5 16.8 15.8 70 3.4 SSE 35 39 19 21 1019.9 1019.9 1.2
20/07:30am 21.5 17.1 15.1 67 3.8 SSE 32 39 17 21 1019.7 1019.7 1.2
20/07:00am 20.7 16.2 15.5 72 3.1 S 33 41 18 22 1019.4 1019.4 1.2
20/06:30am 19.6 14.7 15.3 76 2.5 S 35 43 19 23 1019.1 1019.1 1.0
20/06:00am 18.0 16.9 16.3 90 1.0 S 17 26 9 14 1018.9 1018.9 1.0
20/05:30am 17.8 16.8 16.7 93 0.7 S 17 30 9 16 1018.7 1018.7 1.0
20/05:00am 17.3 16.5 17.1 99 0.1 S 17 26 9 14 1018.3 1018.3 1.0
20/04:30am 17.3 16.5 17.1 99 0.1 S 17 26 9 14 1018.0 1018.0 1.0
20/04:00am 17.2 16.0 17.0 99 0.1 S 19 28 10 15 1017.8 1017.8 1.0
20/03:30am 17.2 16.8 17.2 100 0.0 S 15 26 8 14 1017.8 1017.8 1.0
20/03:00am 17.0 18.1 17.0 100 0.0 SSW 7 11 4 6 1017.9 1017.9 1.0
20/02:30am 17.0 15.8 17.0 100 0.0 SSW 19 26 10 14 1017.7 1017.7 1.0
20/02:00am 17.1 15.9 17.1 100 0.0 SSW 19 28 10 15 1017.9 1017.9 0.8
20/01:30am 17.5 14.7 17.3 99 0.1 S 28 41 15 22 1018.2 1018.2 0.2
20/01:00am 17.4 14.9 17.2 99 0.1 S 26 35 14 19 1018.2 1018.2 0.0
20/12:30am 17.5 16.4 17.3 99 0.1 S 19 28 10 15 1018.5 1018.5 0.0
20/12:00am 17.7 17.0 17.4 98 0.2 SSW 17 24 9 13 1018.6 1018.6 0.0
 
Date/Time
EST
Temp
°C
App
Temp
°C
Dew
Point
°C
Rel
Hum
%
Delta-T
°C
Wind Press
QNH
hPa
Press
MSL
hPa
Rain since
9am
mm
Dir  Spd
km/h
Gust
km/h
Spd
kts
Gust
kts
19/11:30pm 17.9 16.1 16.9 94 0.6 S 22 32 12 17 1018.8 1018.8 0.0
19/11:00pm 18.0 17.5 16.9 93 0.7 SSW 15 22 8 12 1019.1 1019.1 0.0
19/10:30pm 18.4 18.4 17.1 92 0.8 SSW 13 17 7 9 1019.3 1019.3 0.0
19/10:00pm 19.1 17.9 16.1 83 1.8 SSW 17 22 9 12 1019.6 1019.6 0.0
19/09:30pm 19.4 17.5 15.1 76 2.5 S 19 28 10 15 1019.5 1019.5 0.0
19/09:00pm 20.5 16.8 15.9 75 2.7 SSE 30 33 16 18 1019.6 1019.6 0.0
19/08:30pm 20.7 17.0 15.9 74 2.9 SSE 30 37 16 20 1019.4 1019.4 0.0
19/08:00pm 21.3 17.2 14.9 67 3.8 SE 30 35 16 19 1019.2 1019.2 0.0
19/07:30pm 21.1 16.5 14.5 66 3.9 SE 32 35 17 19 1018.9 1018.9 0.0
19/07:00pm 21.2 16.7 14.8 67 3.8 SE 32 37 17 20 1018.7 1018.7 0.0
19/06:30pm 21.5 17.2 15.3 68 3.7 SE 32 37 17 20 1018.4 1018.4 0.0
19/06:00pm 21.3 16.3 14.0 63 4.2 SE 33 39 18 21 1018.1 1018.1 0.0
19/05:30pm 21.5 16.9 14.6 65 4.0 SE 32 37 17 20 1017.8 1017.8 0.0
19/05:00pm 21.9 17.2 14.3 62 4.4 SE 32 39 17 21 1017.6 1017.6 0.0
19/04:30pm 21.0 18.5 15.1 69 3.5 SE 22 26 12 14 1017.5 1017.5 0.0
19/04:00pm 21.3 18.3 15.8 71 3.3 SSE 26 32 14 17 1017.4 1017.4 0.0
19/03:30pm 21.6 17.4 16.3 72 3.2 ESE 33 39 18 21 1017.6 1017.6 0.0
19/03:00pm 22.3 17.5 15.6 66 4.0 SE 35 59 19 32 1017.7 1017.7 0.0
19/02:59pm 22.5 18.1 15.6 65 4.1 SE 33 56 18 30 1017.7 1017.7 0.0
19/02:30pm 24.3 20.7 16.3 61 4.9 ESE 30 33 16 18 1017.7 1017.7 0.0
19/02:00pm 23.7 18.7 13.3 52 6.0 SE 32 39 17 21 1018.1 1018.1 0.0
19/01:30pm 23.7 19.5 15.7 61 4.8 ESE 32 39 17 21 1018.3 1018.3 0.0
19/01:00pm 24.4 20.0 15.6 58 5.3 ESE 33 39 18 21 1018.5 1018.5 0.0
19/12:30pm 24.5 20.2 17.0 63 4.6 ESE 35 39 19 21 1018.6 1018.6 0.0
19/12:00pm 24.0 20.0 17.5 67 4.0 ESE 35 41 19 22 1018.9 1018.9 0.0
19/11:30am 23.7 19.2 17.4 68 3.9 ESE 37 46 20 25 1018.7 1018.7 0.0
19/11:00am 22.7 18.2 18.3 76 2.8 ESE 39 48 21 26 1018.7 1018.7 0.0
19/10:30am 23.6 20.0 18.5 73 3.2 ESE 35 39 19 21 1018.7 1018.7 0.0
19/10:00am 23.0 22.1 19.0 78 2.5 SSE 22 30 12 16 1018.8 1018.8 0.0
19/09:30am 21.8 23.0 19.9 89 1.2 SSE 13 20 7 11 1018.7 1018.7 0.0
19/09:00am 19.9 20.6 17.9 88 1.2 W 11 15 6 8 1018.5 1018.5 10.4
19/08:30am 19.4 18.8 16.6 84 1.7 S 15 20 8 11 1018.5 1018.5 10.0
19/08:00am 21.2 17.9 18.4 84 1.7 SSE 33 50 18 27 1018.1 1018.1 10.0
19/07:54am 21.9 20.3 19.3 85 1.7 SSE 26 43 14 23 1018.0 1018.0 10.0
19/07:30am 20.3 20.7 19.1 93 0.8 SSW 15 19 8 10 1017.9 1017.9 10.0
19/07:00am 19.4 19.4 18.9 97 0.3 S 17 22 9 12 1017.5 1017.5 10.0
19/06:30am 19.6 17.3 17.7 89 1.2 SE 26 32 14 17 1016.9 1016.9 10.0
19/06:00am 19.4 19.5 19.2 99 0.1 E 17 32 9 17 1016.5 1016.5 10.0
19/05:30am 18.5 13.3 17.5 94 0.6 ESE 41 59 22 32 1016.6 1016.6 8.4
19/05:23am 20.2 17.5 17.6 85 1.6 ESE 28 50 15 27 1016.1 1016.1 1.0
19/05:00am 20.4 17.3 15.6 74 2.8 E 26 32 14 17 1015.9 1015.9 1.0
19/04:30am 19.8 16.6 16.4 81 2.0 E 28 39 15 21 1015.7 1015.7 1.0
19/04:00am 19.1 17.9 18.3 95 0.5 SSE 22 28 12 15 1015.5 1015.5 0.8
19/03:30am 18.0 17.8 17.7 98 0.2 S 15 19 8 10 1015.4 1015.4 0.8
19/03:00am 17.9 18.1 17.6 98 0.2 S 13 17 7 9 1015.7 1015.7 0.8
19/02:30am 18.0 18.1 17.4 96 0.4 SSW 13 17 7 9 1015.7 1015.7 0.8
19/02:00am 18.2 17.1 17.2 94 0.6 SSW 19 26 10 14 1015.9 1015.9 0.8
19/01:30am 18.3 17.5 17.0 92 0.8 S 17 19 9 10 1015.9 1015.9 0.8
19/01:00am 18.6 16.5 17.1 91 0.9 S 24 33 13 18 1016.1 1016.1 0.8
19/12:30am 18.7 17.6 17.4 92 0.8 S 19 26 10 14 1016.5 1016.5 0.8
19/12:00am 19.1 19.1 16.3 84 1.7 S 11 17 6 9 1016.8 1016.8 0.8
 
Date/Time
EST
Temp
°C
App
Temp
°C
Dew
Point
°C
Rel
Hum
%
Delta-T
°C
Wind Press
QNH
hPa
Press
MSL
hPa
Rain since
9am
mm
Dir  Spd
km/h
Gust
km/h
Spd
kts
Gust
kts
18/11:30pm 20.7 18.9 14.4 67 3.7 E 17 20 9 11 1017.0 1017.0 0.8
18/11:00pm 21.1 19.2 15.2 69 3.5 E 19 22 10 12 1017.3 1017.3 0.8
18/10:30pm 21.2 18.3 16.2 73 3.0 E 26 32 14 17 1017.5 1017.5 0.8
18/10:00pm 21.3 19.2 15.2 68 3.6 ESE 20 26 11 14 1017.5 1017.5 0.8
18/09:30pm 21.5 19.5 15.6 69 3.5 ESE 20 24 11 13 1017.5 1017.5 0.8
18/09:00pm 20.7 19.1 15.0 70 3.4 E 17 20 9 11 1017.8 1017.8 0.8
18/08:30pm 20.7 20.6 15.9 74 2.9 ENE 11 13 6 7 1018.0 1018.0 0.6
18/08:00pm 21.9 20.2 14.8 64 4.2 E 17 22 9 12 1017.9 1017.9 0.6
18/07:30pm 21.9 19.7 14.8 64 4.2 ENE 20 24 11 13 1017.6 1017.6 0.6
18/07:00pm 21.9 19.8 15.3 66 3.9 ENE 20 26 11 14 1017.2 1017.2 0.6
18/06:30pm 21.8 19.0 14.4 63 4.3 ENE 22 28 12 15 1016.9 1016.9 0.6
18/06:00pm 21.6 19.3 14.7 65 4.1 ENE 20 26 11 14 1016.6 1016.6 0.6
18/05:30pm 22.0 20.4 16.1 69 3.6 ENE 19 24 10 13 1016.3 1016.3 0.6
18/05:00pm 21.9 19.5 15.3 66 3.9 E 22 26 12 14 1016.1 1016.1 0.6
18/04:30pm 21.8 18.4 14.7 64 4.2 E 26 30 14 16 1015.8 1015.8 0.6
18/04:00pm 22.0 18.7 16.1 69 3.6 ENE 28 32 15 17 1015.8 1015.8 0.6
18/03:30pm 21.8 20.0 16.1 70 3.4 ENE 20 32 11 17 1015.8 1015.8 0.6
18/03:00pm 22.0 18.8 15.4 66 3.9 ENE 26 30 14 16 1015.9 1015.9 0.6
18/02:30pm 21.8 18.4 14.7 64 4.2 ENE 26 32 14 17 1015.9 1015.9 0.6
18/02:00pm 21.6 18.8 16.3 72 3.2 ENE 26 30 14 16 1016.2 1016.2 0.6
18/01:30pm 21.0 18.5 18.0 83 1.9 E 28 43 15 23 1016.4 1016.4 0.6
18/01:00pm 20.8 18.3 17.2 80 2.2 ESE 26 30 14 16 1016.7 1016.7 0.6
18/12:30pm 20.5 15.7 16.5 78 2.4 ESE 37 43 20 23 1016.8 1016.8 0.4
18/12:27pm 20.7 16.3 16.7 78 2.4 E 35 43 19 23 1016.8 1016.8 0.4
18/12:00pm 22.2 20.0 16.0 68 3.7 ENE 22 28 12 15 1016.8 1016.8 0.4
18/11:30am 22.3 19.4 16.1 68 3.7 ENE 26 32 14 17 1017.0 1017.0 0.4
18/11:00am 21.4 20.1 14.8 66 3.9 ENE 15 19 8 10 1017.3 1017.3 0.4
18/10:30am 21.0 17.5 16.6 76 2.7 E 30 37 16 20 1017.3 1017.3 0.4
18/10:00am 20.1 15.4 18.6 91 0.9 ESE 41 50 22 27 1017.4 1017.4 0.4
18/09:30am 19.6 15.1 18.3 92 0.8 ESE 39 44 21 24 1017.4 1017.4 0.2
18/09:00am 22.4 19.3 18.4 78 2.5 E 32 37 17 20 1017.3 1017.3 2.2
18/08:30am 22.3 19.9 17.4 74 3.0 NE 26 30 14 16 1017.4 1017.4 2.2
18/08:00am 21.5 17.8 16.0 71 3.3 NE 30 33 16 18 1017.5 1017.5 2.2
18/07:30am 21.3 18.7 16.9 76 2.7 NE 26 30 14 16 1017.6 1017.6 2.2
18/07:00am 21.6 19.2 18.2 81 2.1 NE 28 32 15 17 1017.5 1017.5 2.2
18/06:30am 21.1 19.1 17.5 80 2.2 ENE 24 28 13 15 1017.1 1017.1 2.2
18/06:00am 19.3 18.4 19.1 99 0.1 E 22 32 12 17 1016.9 1016.9 2.2
18/05:56am 18.6 17.0 18.4 99 0.1 ESE 24 52 13 28 1016.9 1016.9 2.2
18/05:46am 18.9 14.6 18.7 99 0.1 SE 39 57 21 31 1016.8 1016.8 2.2
18/05:37am 19.5 17.6 19.3 99 0.1 SE 28 48 15 26 1016.7 1016.7 2.2
18/05:30am 19.6 19.8 19.3 98 0.2 SSE 17 24 9 13 1016.8 1016.8 1.4
18/05:00am 19.7 17.6 19.0 96 0.4 SE 28 32 15 17 1016.5 1016.5 0.0

Latest Capital City Observations: Canberra | Sydney | Melbourne | Brisbane | Adelaide | Perth | Hobart | Darwin

Other Formats:

Comma delimited format used in spreadsheet applications
http://www.bom.gov.au/fwo/IDQ60901/IDQ60901.94580.axf

JavaScript Object Notation format (JSON) in row-major order
http://www.bom.gov.au/fwo/IDQ60901/IDQ60901.94580.json